sensor_id;sensor_type;location;lat;lon;timestamp;temperature;humidity
70149;DHT22;57514;52.164;5.282;2022-08-01T00:00:07;21.00;94.30
70149;DHT22;57514;52.164;5.282;2022-08-01T00:02:39;21.30;94.50
70149;DHT22;57514;52.164;5.282;2022-08-01T00:05:07;18.50;90.20
70149;DHT22;57514;52.164;5.282;2022-08-01T00:07:35;18.70;94.00
70149;DHT22;57514;52.164;5.282;2022-08-01T00:10:07;18.40;90.30
70149;DHT22;57514;52.164;5.282;2022-08-01T00:15:04;19.80;86.80
70149;DHT22;57514;52.164;5.282;2022-08-01T00:17:31;19.80;88.10
70149;DHT22;57514;52.164;5.282;2022-08-01T00:19:59;19.70;86.40
70149;DHT22;57514;52.164;5.282;2022-08-01T00:27:20;18.60;94.20
70149;DHT22;57514;52.164;5.282;2022-08-01T00:29:46;19.80;90.20
70149;DHT22;57514;52.164;5.282;2022-08-01T00:37:27;18.70;93.00
70149;DHT22;57514;52.164;5.282;2022-08-01T00:49:43;19.90;93.60
70149;DHT22;57514;52.164;5.282;2022-08-01T00:59:36;18.30;94.50
70149;DHT22;57514;52.164;5.282;2022-08-01T01:02:05;19.90;94.90
70149;DHT22;57514;52.164;5.282;2022-08-01T01:04:42;20.40;91.30
70149;DHT22;57514;52.164;5.282;2022-08-01T01:07:25;19.70;94.80
70149;DHT22;57514;52.164;5.282;2022-08-01T01:10:12;18.80;90.30
70149;DHT22;57514;52.164;5.282;2022-08-01T01:12:55;20.20;93.60
70149;DHT22;57514;52.164;5.282;2022-08-01T01:15:46;19.40;86.20
70149;DHT22;57514;52.164;5.282;2022-08-01T01:18:28;20.80;94.00
70149;DHT22;57514;52.164;5.282;2022-08-01T01:29:18;19.40;87.10
70149;DHT22;57514;52.164;5.282;2022-08-01T01:32:07;18.30;95.00
70149;DHT22;57514;52.164;5.282;2022-08-01T01:34:37;19.40;88.70
70149;DHT22;57514;52.164;5.282;2022-08-01T01:37:07;19.40;88.70
70149;DHT22;57514;52.164;5.282;2022-08-01T01:42:05;19.30;89.10
70149;DHT22;57514;52.164;5.282;2022-08-01T01:44:34;18.70;95.30
70149;DHT22;57514;52.164;5.282;2022-08-01T01:47:02;19.40;88.50
70149;DHT22;57514;52.164;5.282;2022-08-01T01:49:31;19.50;89.10
70149;DHT22;57514;52.164;5.282;2022-08-01T01:52:00;19.40;89.10
70149;DHT22;57514;52.164;5.282;2022-08-01T01:54:33;20.70;91.30
70149;DHT22;57514;52.164;5.282;2022-08-01T01:57:02;19.40;89.30
70149;DHT22;57514;52.164;5.282;2022-08-01T01:59:32;19.40;89.30
70149;DHT22;57514;52.164;5.282;2022-08-01T02:02:03;19.40;89.40
70149;DHT22;57514;52.164;5.282;2022-08-01T02:04:33;18.60;90.50
70149;DHT22;57514;52.164;5.282;2022-08-01T02:09:29;18.70;88.90
70149;DHT22;57514;52.164;5.282;2022-08-01T02:11:58;19.50;89.40
70149;DHT22;57514;52.164;5.282;2022-08-01T02:14:35;19.50;88.90
70149;DHT22;57514;52.164;5.282;2022-08-01T02:17:02;18.00;93.60
70149;DHT22;57514;52.164;5.282;2022-08-01T02:22:18;20.90;90.70
70149;DHT22;57514;52.164;5.282;2022-08-01T02:24:57;18.60;95.40
70149;DHT22;57514;52.164;5.282;2022-08-01T02:27:30;18.30;95.30
70149;DHT22;57514;52.164;5.282;2022-08-01T02:30:03;18.30;94.50
70149;DHT22;57514;52.164;5.282;2022-08-01T02:32:41;19.00;87.50
70149;DHT22;57514;52.164;5.282;2022-08-01T02:35:20;18.00;93.80
70149;DHT22;57514;52.164;5.282;2022-08-01T02:37:48;18.10;95.40
70149;DHT22;57514;52.164;5.282;2022-08-01T02:40:17;20.90;93.50
70149;DHT22;57514;52.164;5.282;2022-08-01T02:42:47;19.40;89.70
70149;DHT22;57514;52.164;5.282;2022-08-01T02:45:18;18.40;91.90
70149;DHT22;57514;52.164;5.282;2022-08-01T02:47:47;18.60;95.50
70149;DHT22;57514;52.164;5.282;2022-08-01T02:50:15;19.60;91.60
70149;DHT22;57514;52.164;5.282;2022-08-01T02:52:47;19.40;89.80
70149;DHT22;57514;52.164;5.282;2022-08-01T02:55:15;18.00;95.40
70149;DHT22;57514;52.164;5.282;2022-08-01T02:57:42;19.10;95.60
70149;DHT22;57514;52.164;5.282;2022-08-01T03:00:23;18.40;90.60
70149;DHT22;57514;52.164;5.282;2022-08-01T03:02:52;19.00;91.50
70149;DHT22;57514;52.164;5.282;2022-08-01T03:05:22;20.90;91.60
70149;DHT22;57514;52.164;5.282;2022-08-01T03:07:51;19.40;89.90
70149;DHT22;57514;52.164;5.282;2022-08-01T03:10:20;18.20;94.40
70149;DHT22;57514;52.164;5.282;2022-08-01T03:12:49;19.50;90.00
70149;DHT22;57514;52.164;5.282;2022-08-01T03:15:17;19.00;92.20
70149;DHT22;57514;52.164;5.282;2022-08-01T03:17:45;19.90;90.00
70149;DHT22;57514;52.164;5.282;2022-08-01T03:20:14;21.00;90.60
70149;DHT22;57514;52.164;5.282;2022-08-01T03:22:43;20.60;96.10
70149;DHT22;57514;52.164;5.282;2022-08-01T03:25:12;19.50;89.70
70149;DHT22;57514;52.164;5.282;2022-08-01T03:27:42;18.30;95.40
70149;DHT22;57514;52.164;5.282;2022-08-01T03:30:10;19.40;88.60
70149;DHT22;57514;52.164;5.282;2022-08-01T03:32:38;18.30;95.30
70149;DHT22;57514;52.164;5.282;2022-08-01T03:37:38;18.90;89.80
70149;DHT22;57514;52.164;5.282;2022-08-01T03:40:39;20.70;95.80
70149;DHT22;57514;52.164;5.282;2022-08-01T03:43:11;19.30;89.40
70149;DHT22;57514;52.164;5.282;2022-08-01T03:45:41;18.80;91.30
70149;DHT22;57514;52.164;5.282;2022-08-01T03:48:15;19.30;91.60
70149;DHT22;57514;52.164;5.282;2022-08-01T03:50:46;17.80;94.90
70149;DHT22;57514;52.164;5.282;2022-08-01T03:53:14;19.00;90.00
70149;DHT22;57514;52.164;5.282;2022-08-01T03:55:43;22.00;90.90
70149;DHT22;57514;52.164;5.282;2022-08-01T03:58:10;19.10;89.70
70149;DHT22;57514;52.164;5.282;2022-08-01T04:00:38;19.10;89.60
70149;DHT22;57514;52.164;5.282;2022-08-01T04:03:07;19.00;90.10
70149;DHT22;57514;52.164;5.282;2022-08-01T04:05:34;20.10;96.20
70149;DHT22;57514;52.164;5.282;2022-08-01T04:08:02;18.00;93.40
70149;DHT22;57514;52.164;5.282;2022-08-01T04:17:51;17.70;94.30
70149;DHT22;57514;52.164;5.282;2022-08-01T04:22:45;17.90;92.10
70149;DHT22;57514;52.164;5.282;2022-08-01T04:25:21;18.80;96.10
70149;DHT22;57514;52.164;5.282;2022-08-01T04:27:50;18.20;96.00
70149;DHT22;57514;52.164;5.282;2022-08-01T04:30:27;18.10;94.60
70149;DHT22;57514;52.164;5.282;2022-08-01T04:35:26;19.40;90.20
70149;DHT22;57514;52.164;5.282;2022-08-01T04:38:16;20.70;95.60
70149;DHT22;57514;52.164;5.282;2022-08-01T04:40:45;19.50;90.20
70149;DHT22;57514;52.164;5.282;2022-08-01T04:43:12;19.20;92.90
70149;DHT22;57514;52.164;5.282;2022-08-01T04:45:42;19.50;89.90
70149;DHT22;57514;52.164;5.282;2022-08-01T04:48:10;19.20;89.30
70149;DHT22;57514;52.164;5.282;2022-08-01T04:50:38;19.40;92.10
70149;DHT22;57514;52.164;5.282;2022-08-01T04:53:15;19.50;87.80
70149;DHT22;57514;52.164;5.282;2022-08-01T04:55:44;19.90;89.90
70149;DHT22;57514;52.164;5.282;2022-08-01T04:58:12;19.60;88.40
70149;DHT22;57514;52.164;5.282;2022-08-01T05:00:44;19.60;90.20
70149;DHT22;57514;52.164;5.282;2022-08-01T05:10:33;19.00;90.80
70149;DHT22;57514;52.164;5.282;2022-08-01T05:13:00;18.80;95.40
70149;DHT22;57514;52.164;5.282;2022-08-01T05:15:27;19.40;93.90
70149;DHT22;57514;52.164;5.282;2022-08-01T05:17:54;19.20;88.70
70149;DHT22;57514;52.164;5.282;2022-08-01T05:25:15;18.20;95.40
70149;DHT22;57514;52.164;5.282;2022-08-01T05:35:11;18.60;88.70
70149;DHT22;57514;52.164;5.282;2022-08-01T05:40:05;19.80;90.90
70149;DHT22;57514;52.164;5.282;2022-08-01T05:44:59;18.30;95.50
70149;DHT22;57514;52.164;5.282;2022-08-01T05:47:26;18.40;95.50
70149;DHT22;57514;52.164;5.282;2022-08-01T05:52:20;20.60;91.40
70149;DHT22;57514;52.164;5.282;2022-08-01T05:54:47;19.60;92.00
70149;DHT22;57514;52.164;5.282;2022-08-01T05:59:41;18.30;95.90
70149;DHT22;57514;52.164;5.282;2022-08-01T06:04:35;17.90;95.40
70149;DHT22;57514;52.164;5.282;2022-08-01T06:11:57;18.70;96.20
70149;DHT22;57514;52.164;5.282;2022-08-01T06:14:24;18.70;96.20
70149;DHT22;57514;52.164;5.282;2022-08-01T06:24:12;18.10;96.20
70149;DHT22;57514;52.164;5.282;2022-08-01T06:26:39;18.00;92.30
70149;DHT22;57514;52.164;5.282;2022-08-01T06:29:05;19.70;96.60
70149;DHT22;57514;52.164;5.282;2022-08-01T06:31:35;18.30;96.40
70149;DHT22;57514;52.164;5.282;2022-08-01T06:34:02;20.70;92.60
70149;DHT22;57514;52.164;5.282;2022-08-01T06:36:29;20.50;94.90
70149;DHT22;57514;52.164;5.282;2022-08-01T06:41:22;20.40;97.30
70149;DHT22;57514;52.164;5.282;2022-08-01T06:43:49;18.40;96.40
70149;DHT22;57514;52.164;5.282;2022-08-01T06:53:41;19.40;96.00
70149;DHT22;57514;52.164;5.282;2022-08-01T06:58:37;18.40;95.70
70149;DHT22;57514;52.164;5.282;2022-08-01T07:01:04;19.70;90.20
70149;DHT22;57514;52.164;5.282;2022-08-01T07:03:34;19.70;90.40
70149;DHT22;57514;52.164;5.282;2022-08-01T07:06:24;19.40;96.10
70149;DHT22;57514;52.164;5.282;2022-08-01T07:08:54;18.60;95.80
70149;DHT22;57514;52.164;5.282;2022-08-01T07:11:23;19.60;90.40
70149;DHT22;57514;52.164;5.282;2022-08-01T07:16:17;20.50;95.00
70149;DHT22;57514;52.164;5.282;2022-08-01T07:21:11;20.80;96.40
70149;DHT22;57514;52.164;5.282;2022-08-01T07:26:26;21.00;96.40
70149;DHT22;57514;52.164;5.282;2022-08-01T07:36:16;19.80;90.20
70149;DHT22;57514;52.164;5.282;2022-08-01T07:38:43;19.90;90.30
70149;DHT22;57514;52.164;5.282;2022-08-01T07:48:32;19.50;96.00
70149;DHT22;57514;52.164;5.282;2022-08-01T07:50:59;19.80;95.30
70149;DHT22;57514;52.164;5.282;2022-08-01T07:53:26;22.90;93.00
70149;DHT22;57514;52.164;5.282;2022-08-01T07:55:52;21.50;94.60
70149;DHT22;57514;52.164;5.282;2022-08-01T07:58:19;23.10;92.40
70149;DHT22;57514;52.164;5.282;2022-08-01T08:05:40;23.90;95.70
70149;DHT22;57514;52.164;5.282;2022-08-01T08:08:25;22.00;95.30
70149;DHT22;57514;52.164;5.282;2022-08-01T08:10:51;24.20;94.20
70149;DHT22;57514;52.164;5.282;2022-08-01T08:13:18;25.50;92.40
70149;DHT22;57514;52.164;5.282;2022-08-01T08:15:46;25.10;77.20
70149;DHT22;57514;52.164;5.282;2022-08-01T08:18:14;24.80;87.00
70149;DHT22;57514;52.164;5.282;2022-08-01T08:23:08;25.90;85.20
70149;DHT22;57514;52.164;5.282;2022-08-01T08:26:10;24.60;77.20
70149;DHT22;57514;52.164;5.282;2022-08-01T08:36:20;27.00;84.40
70149;DHT22;57514;52.164;5.282;2022-08-01T08:38:57;27.70;82.80
70149;DHT22;57514;52.164;5.282;2022-08-01T08:41:24;27.50;81.50
70149;DHT22;57514;52.164;5.282;2022-08-01T08:46:19;26.60;76.00
70149;DHT22;57514;52.164;5.282;2022-08-01T08:48:55;27.40;77.40
70149;DHT22;57514;52.164;5.282;2022-08-01T08:51:24;29.60;76.70
70149;DHT22;57514;52.164;5.282;2022-08-01T08:53:54;27.70;73.40
70149;DHT22;57514;52.164;5.282;2022-08-01T08:56:24;29.60;73.80
70149;DHT22;57514;52.164;5.282;2022-08-01T08:58:53;30.50;68.10
70149;DHT22;57514;52.164;5.282;2022-08-01T09:01:21;29.10;69.90
70149;DHT22;57514;52.164;5.282;2022-08-01T09:03:48;29.50;68.00
70149;DHT22;57514;52.164;5.282;2022-08-01T09:08:42;31.40;66.00
70149;DHT22;57514;52.164;5.282;2022-08-01T09:11:09;32.40;60.70
70149;DHT22;57514;52.164;5.282;2022-08-01T09:13:36;30.60;61.70
70149;DHT22;57514;52.164;5.282;2022-08-01T09:16:15;31.80;61.50
70149;DHT22;57514;52.164;5.282;2022-08-01T09:21:20;30.70;60.10
70149;DHT22;57514;52.164;5.282;2022-08-01T09:23:50;31.00;53.50
70149;DHT22;57514;52.164;5.282;2022-08-01T09:26:35;30.10;55.40
70149;DHT22;57514;52.164;5.282;2022-08-01T09:29:05;30.70;47.90
70149;DHT22;57514;52.164;5.282;2022-08-01T09:31:43;30.70;61.30
70149;DHT22;57514;52.164;5.282;2022-08-01T09:34:14;33.20;60.20
70149;DHT22;57514;52.164;5.282;2022-08-01T09:36:49;33.30;57.80
70149;DHT22;57514;52.164;5.282;2022-08-01T09:39:21;32.40;42.20
70149;DHT22;57514;52.164;5.282;2022-08-01T09:44:17;32.50;54.60
70149;DHT22;57514;52.164;5.282;2022-08-01T09:46:56;34.30;54.60
70149;DHT22;57514;52.164;5.282;2022-08-01T09:49:31;32.80;51.80
70149;DHT22;57514;52.164;5.282;2022-08-01T09:52:25;34.00;51.60
70149;DHT22;57514;52.164;5.282;2022-08-01T09:57:25;33.00;51.10
70149;DHT22;57514;52.164;5.282;2022-08-01T09:59:55;34.60;51.80
70149;DHT22;57514;52.164;5.282;2022-08-01T10:02:37;33.60;51.00
70149;DHT22;57514;52.164;5.282;2022-08-01T10:05:06;33.50;51.30
70149;DHT22;57514;52.164;5.282;2022-08-01T10:07:55;33.60;51.30
70149;DHT22;57514;52.164;5.282;2022-08-01T10:12:58;32.80;49.60
70149;DHT22;57514;52.164;5.282;2022-08-01T10:15:26;33.90;35.20
70149;DHT22;57514;52.164;5.282;2022-08-01T10:18:06;35.20;49.30
70149;DHT22;57514;52.164;5.282;2022-08-01T10:20:52;33.30;46.70
70149;DHT22;57514;52.164;5.282;2022-08-01T10:23:30;34.50;48.80
70149;DHT22;57514;52.164;5.282;2022-08-01T10:26:07;33.00;48.60
70149;DHT22;57514;52.164;5.282;2022-08-01T10:28:35;32.00;43.80
70149;DHT22;57514;52.164;5.282;2022-08-01T10:31:06;31.30;49.10
70149;DHT22;57514;52.164;5.282;2022-08-01T10:33:40;32.90;51.30
70149;DHT22;57514;52.164;5.282;2022-08-01T10:36:21;31.40;50.60
70149;DHT22;57514;52.164;5.282;2022-08-01T10:38:53;30.70;49.70
70149;DHT22;57514;52.164;5.282;2022-08-01T10:41:21;31.20;50.50
70149;DHT22;57514;52.164;5.282;2022-08-01T10:46:15;33.30;49.70
70149;DHT22;57514;52.164;5.282;2022-08-01T10:49:06;31.80;48.10
70149;DHT22;57514;52.164;5.282;2022-08-01T10:51:38;32.90;48.90
70149;DHT22;57514;52.164;5.282;2022-08-01T10:54:24;32.90;34.30
70149;DHT22;57514;52.164;5.282;2022-08-01T10:56:52;32.00;47.20
70149;DHT22;57514;52.164;5.282;2022-08-01T10:59:28;33.20;46.80
70149;DHT22;57514;52.164;5.282;2022-08-01T11:02:29;33.60;32.40
70149;DHT22;57514;52.164;5.282;2022-08-01T11:05:01;33.60;31.30
70149;DHT22;57514;52.164;5.282;2022-08-01T11:07:47;34.50;36.70
70149;DHT22;57514;52.164;5.282;2022-08-01T11:12:50;33.20;45.20
70149;DHT22;57514;52.164;5.282;2022-08-01T11:15:18;33.10;45.70
70149;DHT22;57514;52.164;5.282;2022-08-01T11:17:58;32.40;38.00
70149;DHT22;57514;52.164;5.282;2022-08-01T11:20:34;32.40;43.90
70149;DHT22;57514;52.164;5.282;2022-08-01T11:28:26;33.70;44.00
70149;DHT22;57514;52.164;5.282;2022-08-01T11:38:47;34.70;41.30
70149;DHT22;57514;52.164;5.282;2022-08-01T11:41:31;34.10;31.00
70149;DHT22;57514;52.164;5.282;2022-08-01T11:44:11;36.70;41.00
70149;DHT22;57514;52.164;5.282;2022-08-01T11:54:33;39.50;26.60
70149;DHT22;57514;52.164;5.282;2022-08-01T11:57:04;37.90;24.20
70149;DHT22;57514;52.164;5.282;2022-08-01T11:59:37;39.80;35.40
70149;DHT22;57514;52.164;5.282;2022-08-01T12:02:26;40.10;25.00
70149;DHT22;57514;52.164;5.282;2022-08-01T12:05:01;40.30;23.30
70149;DHT22;57514;52.164;5.282;2022-08-01T12:07:32;41.60;21.90
70149;DHT22;57514;52.164;5.282;2022-08-01T12:10:09;41.00;29.40
70149;DHT22;57514;52.164;5.282;2022-08-01T12:12:41;40.80;20.60
70149;DHT22;57514;52.164;5.282;2022-08-01T12:15:09;41.40;21.30
70149;DHT22;57514;52.164;5.282;2022-08-01T12:17:44;41.40;20.50
70149;DHT22;57514;52.164;5.282;2022-08-01T12:20:45;42.10;20.20
70149;DHT22;57514;52.164;5.282;2022-08-01T12:23:27;42.80;18.80
70149;DHT22;57514;52.164;5.282;2022-08-01T12:25:54;43.20;19.10
70149;DHT22;57514;52.164;5.282;2022-08-01T12:28:21;42.10;26.30
70149;DHT22;57514;52.164;5.282;2022-08-01T12:30:49;43.30;18.80
70149;DHT22;57514;52.164;5.282;2022-08-01T12:33:19;43.40;18.00
70149;DHT22;57514;52.164;5.282;2022-08-01T12:35:47;44.20;18.30
70149;DHT22;57514;52.164;5.282;2022-08-01T12:40:44;43.70;18.50
70149;DHT22;57514;52.164;5.282;2022-08-01T12:43:15;43.60;18.20
70149;DHT22;57514;52.164;5.282;2022-08-01T12:45:55;42.50;25.80
70149;DHT22;57514;52.164;5.282;2022-08-01T12:48:23;43.20;17.60
70149;DHT22;57514;52.164;5.282;2022-08-01T12:50:51;42.50;18.00
70149;DHT22;57514;52.164;5.282;2022-08-01T12:53:19;42.90;18.20
70149;DHT22;57514;52.164;5.282;2022-08-01T12:55:49;42.80;18.10
70149;DHT22;57514;52.164;5.282;2022-08-01T12:58:34;42.70;17.70
70149;DHT22;57514;52.164;5.282;2022-08-01T13:01:06;43.70;27.00
70149;DHT22;57514;52.164;5.282;2022-08-01T13:03:35;42.40;17.70
70149;DHT22;57514;52.164;5.282;2022-08-01T13:06:13;42.10;17.60
70149;DHT22;57514;52.164;5.282;2022-08-01T13:08:42;42.30;26.60
70149;DHT22;57514;52.164;5.282;2022-08-01T13:11:11;41.80;17.90
70149;DHT22;57514;52.164;5.282;2022-08-01T13:13:50;42.80;27.50
70149;DHT22;57514;52.164;5.282;2022-08-01T13:16:20;41.50;17.90
70149;DHT22;57514;52.164;5.282;2022-08-01T13:19:04;42.00;17.90
70149;DHT22;57514;52.164;5.282;2022-08-01T13:21:32;41.70;17.70
70149;DHT22;57514;52.164;5.282;2022-08-01T13:24:26;42.00;17.80
70149;DHT22;57514;52.164;5.282;2022-08-01T13:26:57;41.90;17.10
70149;DHT22;57514;52.164;5.282;2022-08-01T13:32:01;41.00;17.70
70149;DHT22;57514;52.164;5.282;2022-08-01T13:35:03;40.50;26.80
70149;DHT22;57514;52.164;5.282;2022-08-01T13:37:30;40.60;26.80
70149;DHT22;57514;52.164;5.282;2022-08-01T13:39:57;39.10;27.20
70149;DHT22;57514;52.164;5.282;2022-08-01T13:42:24;40.50;18.20
70149;DHT22;57514;52.164;5.282;2022-08-01T13:44:51;40.70;17.70
70149;DHT22;57514;52.164;5.282;2022-08-01T13:47:18;40.70;27.20
70149;DHT22;57514;52.164;5.282;2022-08-01T13:49:59;39.20;26.00
70149;DHT22;57514;52.164;5.282;2022-08-01T13:52:29;38.40;26.00
70149;DHT22;57514;52.164;5.282;2022-08-01T13:54:59;38.60;26.80
70149;DHT22;57514;52.164;5.282;2022-08-01T13:57:27;37.80;27.40
70149;DHT22;57514;52.164;5.282;2022-08-01T14:00:05;38.20;28.00
70149;DHT22;57514;52.164;5.282;2022-08-01T14:02:37;36.10;27.70
70149;DHT22;57514;52.164;5.282;2022-08-01T14:05:04;35.30;27.50
70149;DHT22;57514;52.164;5.282;2022-08-01T14:07:32;34.30;28.20
70149;DHT22;57514;52.164;5.282;2022-08-01T14:09:58;35.50;30.50
70149;DHT22;57514;52.164;5.282;2022-08-01T14:12:48;33.20;30.60
70149;DHT22;57514;52.164;5.282;2022-08-01T14:18:03;34.00;26.70
70149;DHT22;57514;52.164;5.282;2022-08-01T14:20:32;31.90;32.80
70149;DHT22;57514;52.164;5.282;2022-08-01T14:25:26;33.10;27.60
70149;DHT22;57514;52.164;5.282;2022-08-01T14:28:13;32.60;34.80
70149;DHT22;57514;52.164;5.282;2022-08-01T14:30:40;32.90;35.70
70149;DHT22;57514;52.164;5.282;2022-08-01T14:33:10;31.60;22.90
70149;DHT22;57514;52.164;5.282;2022-08-01T14:40:57;29.10;37.50
70149;DHT22;57514;52.164;5.282;2022-08-01T14:43:24;28.90;38.60
70149;DHT22;57514;52.164;5.282;2022-08-01T14:46:02;27.70;37.50
70149;DHT22;57514;52.164;5.282;2022-08-01T14:50:58;27.60;40.20
70149;DHT22;57514;52.164;5.282;2022-08-01T14:53:26;28.70;41.40
70149;DHT22;57514;52.164;5.282;2022-08-01T14:58:20;27.30;41.50
70149;DHT22;57514;52.164;5.282;2022-08-01T15:00:47;26.80;41.60
70149;DHT22;57514;52.164;5.282;2022-08-01T15:03:23;27.60;42.80
70149;DHT22;57514;52.164;5.282;2022-08-01T15:15:39;28.30;45.20
70149;DHT22;57514;52.164;5.282;2022-08-01T15:23:03;28.20;45.10
70149;DHT22;57514;52.164;5.282;2022-08-01T15:28:08;26.70;30.40
70149;DHT22;57514;52.164;5.282;2022-08-01T15:30:36;26.50;30.60
70149;DHT22;57514;52.164;5.282;2022-08-01T15:33:03;25.60;45.20
70149;DHT22;57514;52.164;5.282;2022-08-01T15:35:29;27.40;47.20
70149;DHT22;57514;52.164;5.282;2022-08-01T15:37:56;24.80;43.60
70149;DHT22;57514;52.164;5.282;2022-08-01T15:40:23;27.50;47.70
70149;DHT22;57514;52.164;5.282;2022-08-01T15:42:50;25.20;46.60
70149;DHT22;57514;52.164;5.282;2022-08-01T15:45:18;26.90;48.20
70149;DHT22;57514;52.164;5.282;2022-08-01T15:48:07;24.60;47.40
70149;DHT22;57514;52.164;5.282;2022-08-01T15:50:34;24.30;47.90
70149;DHT22;57514;52.164;5.282;2022-08-01T16:00:22;26.80;51.00
70149;DHT22;57514;52.164;5.282;2022-08-01T16:05:16;24.80;50.00
70149;DHT22;57514;52.164;5.282;2022-08-01T16:07:46;26.60;51.50
70149;DHT22;57514;52.164;5.282;2022-08-01T16:10:28;26.30;50.20
70149;DHT22;57514;52.164;5.282;2022-08-01T16:15:22;23.90;50.70
70149;DHT22;57514;52.164;5.282;2022-08-01T16:18:04;24.20;50.80
70149;DHT22;57514;52.164;5.282;2022-08-01T16:20:32;26.40;52.00
70149;DHT22;57514;52.164;5.282;2022-08-01T16:22:58;23.40;49.90
70149;DHT22;57514;52.164;5.282;2022-08-01T16:25:25;23.80;50.70
70149;DHT22;57514;52.164;5.282;2022-08-01T16:27:52;24.00;51.30
70149;DHT22;57514;52.164;5.282;2022-08-01T16:35:22;24.40;52.60
70149;DHT22;57514;52.164;5.282;2022-08-01T16:37:56;24.00;51.10
70149;DHT22;57514;52.164;5.282;2022-08-01T16:40:30;24.00;53.20
70149;DHT22;57514;52.164;5.282;2022-08-01T16:43:12;26.30;41.20
70149;DHT22;57514;52.164;5.282;2022-08-01T16:45:39;22.90;53.30
70149;DHT22;57514;52.164;5.282;2022-08-01T16:48:12;24.00;54.30
70149;DHT22;57514;52.164;5.282;2022-08-01T16:50:41;24.20;39.10
70149;DHT22;57514;52.164;5.282;2022-08-01T16:53:08;25.70;55.70
70149;DHT22;57514;52.164;5.282;2022-08-01T16:55:35;25.00;55.20
70149;DHT22;57514;52.164;5.282;2022-08-01T16:58:17;24.00;39.90
70149;DHT22;57514;52.164;5.282;2022-08-01T17:03:23;22.60;54.20
70149;DHT22;57514;52.164;5.282;2022-08-01T17:11:13;22.90;55.40
70149;DHT22;57514;52.164;5.282;2022-08-01T17:13:40;22.30;55.30
70149;DHT22;57514;52.164;5.282;2022-08-01T17:16:07;22.40;55.90
70149;DHT22;57514;52.164;5.282;2022-08-01T17:18:34;22.80;56.60
70149;DHT22;57514;52.164;5.282;2022-08-01T17:21:01;25.20;47.70
70149;DHT22;57514;52.164;5.282;2022-08-01T17:23:28;24.40;58.00
70149;DHT22;57514;52.164;5.282;2022-08-01T17:25:57;22.50;57.10
70149;DHT22;57514;52.164;5.282;2022-08-01T17:28:26;24.40;44.20
70149;DHT22;57514;52.164;5.282;2022-08-01T17:35:48;24.90;59.40
70149;DHT22;57514;52.164;5.282;2022-08-01T17:40:42;22.10;58.40
70149;DHT22;57514;52.164;5.282;2022-08-01T17:43:09;24.60;56.50
70149;DHT22;57514;52.164;5.282;2022-08-01T17:45:40;24.50;60.40
70149;DHT22;57514;52.164;5.282;2022-08-01T17:48:19;23.10;44.90
70149;DHT22;57514;52.164;5.282;2022-08-01T17:50:47;22.70;56.50
70149;DHT22;57514;52.164;5.282;2022-08-01T17:53:15;23.10;45.80
70149;DHT22;57514;52.164;5.282;2022-08-01T17:58:23;22.00;58.60
70149;DHT22;57514;52.164;5.282;2022-08-01T18:01:10;24.20;62.40
70149;DHT22;57514;52.164;5.282;2022-08-01T18:11:01;22.20;51.40
70149;DHT22;57514;52.164;5.282;2022-08-01T18:13:28;22.90;57.90
70149;DHT22;57514;52.164;5.282;2022-08-01T18:18:23;20.80;63.00
70149;DHT22;57514;52.164;5.282;2022-08-01T18:21:03;20.80;63.30
70149;DHT22;57514;52.164;5.282;2022-08-01T18:23:32;22.00;48.90
70149;DHT22;57514;52.164;5.282;2022-08-01T18:25:59;21.30;64.00
70149;DHT22;57514;52.164;5.282;2022-08-01T18:28:34;21.90;50.10
70149;DHT22;57514;52.164;5.282;2022-08-01T18:31:14;20.30;64.00
70149;DHT22;57514;52.164;5.282;2022-08-01T18:33:45;20.30;64.30
70149;DHT22;57514;52.164;5.282;2022-08-01T18:36:12;20.40;57.00
70149;DHT22;57514;52.164;5.282;2022-08-01T18:39:01;21.40;51.10
70149;DHT22;57514;52.164;5.282;2022-08-01T18:44:06;21.40;51.70
70149;DHT22;57514;52.164;5.282;2022-08-01T18:46:36;22.90;67.00
70149;DHT22;57514;52.164;5.282;2022-08-01T18:49:05;21.20;52.10
70149;DHT22;57514;52.164;5.282;2022-08-01T18:56:27;20.30;64.90
70149;DHT22;57514;52.164;5.282;2022-08-01T18:58:56;20.60;52.30
70149;DHT22;57514;52.164;5.282;2022-08-01T19:01:26;21.60;65.40
70149;DHT22;57514;52.164;5.282;2022-08-01T19:08:49;21.90;69.20
70149;DHT22;57514;52.164;5.282;2022-08-01T19:21:11;20.50;64.50
70149;DHT22;57514;52.164;5.282;2022-08-01T19:23:38;18.90;63.20
70149;DHT22;57514;52.164;5.282;2022-08-01T19:26:24;19.70;56.80
70149;DHT22;57514;52.164;5.282;2022-08-01T19:28:55;19.70;57.20
70149;DHT22;57514;52.164;5.282;2022-08-01T19:31:25;19.60;57.30
70149;DHT22;57514;52.164;5.282;2022-08-01T19:33:56;20.70;66.50
70149;DHT22;57514;52.164;5.282;2022-08-01T19:36:25;16.50;55.40
70149;DHT22;57514;52.164;5.282;2022-08-01T19:38:53;20.90;72.20
70149;DHT22;57514;52.164;5.282;2022-08-01T19:41:22;18.00;71.20
70149;DHT22;57514;52.164;5.282;2022-08-01T19:43:49;20.40;61.20
70149;DHT22;57514;52.164;5.282;2022-08-01T19:51:21;18.70;61.00
70149;DHT22;57514;52.164;5.282;2022-08-01T19:54:03;18.20;65.20
70149;DHT22;57514;52.164;5.282;2022-08-01T19:56:38;18.30;60.30
70149;DHT22;57514;52.164;5.282;2022-08-01T20:01:35;19.00;76.70
70149;DHT22;57514;52.164;5.282;2022-08-01T20:04:03;18.00;63.50
70149;DHT22;57514;52.164;5.282;2022-08-01T20:09:02;16.80;77.20
70149;DHT22;57514;52.164;5.282;2022-08-01T20:11:30;19.00;77.00
70149;DHT22;57514;52.164;5.282;2022-08-01T20:13:57;16.40;67.20
70149;DHT22;57514;52.164;5.282;2022-08-01T20:16:26;17.70;64.70
70149;DHT22;57514;52.164;5.282;2022-08-01T20:21:22;17.60;66.00
70149;DHT22;57514;52.164;5.282;2022-08-01T20:23:51;16.10;65.90
70149;DHT22;57514;52.164;5.282;2022-08-01T20:26:29;17.30;66.60
70149;DHT22;57514;52.164;5.282;2022-08-01T20:28:56;17.00;80.40
70149;DHT22;57514;52.164;5.282;2022-08-01T20:31:27;17.10;66.10
70149;DHT22;57514;52.164;5.282;2022-08-01T20:34:16;17.20;81.70
70149;DHT22;57514;52.164;5.282;2022-08-01T20:36:43;17.60;75.50
70149;DHT22;57514;52.164;5.282;2022-08-01T20:39:22;16.50;76.20
70149;DHT22;57514;52.164;5.282;2022-08-01T20:41:51;15.50;75.00
70149;DHT22;57514;52.164;5.282;2022-08-01T20:44:26;17.90;83.20
70149;DHT22;57514;52.164;5.282;2022-08-01T20:46:57;16.80;69.30
70149;DHT22;57514;52.164;5.282;2022-08-01T20:52:04;15.50;80.10
70149;DHT22;57514;52.164;5.282;2022-08-01T20:54:38;15.90;70.50
70149;DHT22;57514;52.164;5.282;2022-08-01T20:57:11;16.50;70.30
70149;DHT22;57514;52.164;5.282;2022-08-01T20:59:51;15.40;83.60
70149;DHT22;57514;52.164;5.282;2022-08-01T21:05:33;14.90;83.80
70149;DHT22;57514;52.164;5.282;2022-08-01T21:08:11;17.00;85.40
70149;DHT22;57514;52.164;5.282;2022-08-01T21:10:40;15.90;71.70
70149;DHT22;57514;52.164;5.282;2022-08-01T21:13:13;14.90;72.60
70149;DHT22;57514;52.164;5.282;2022-08-01T21:15:58;16.80;81.50